createdAt,value
2023-04-17T00:01:21.326Z,94690.72
2023-04-17T00:04:13.465Z,94682.94
2023-04-17T00:06:59.559Z,94687.44
2023-04-17T00:09:45.638Z,94682.03
2023-04-17T00:12:31.968Z,94684.19
2023-04-17T00:15:17.654Z,94691.84
2023-04-17T00:18:03.581Z,94676.59
2023-04-17T00:20:49.616Z,94672.88
2023-04-17T00:23:35.923Z,94671.81
2023-04-17T00:26:22.014Z,94671.56
2023-04-17T00:29:07.983Z,94671.31
2023-04-17T00:31:53.990Z,94657.56
2023-04-17T00:34:40.588Z,94665.88
2023-04-17T00:37:26.366Z,94662.28
2023-04-17T00:40:12.601Z,94660.44
2023-04-17T00:43:01.645Z,94662.03
2023-04-17T00:45:48.177Z,94660.44
2023-04-17T00:48:35.599Z,94652.53
2023-04-17T00:51:22.038Z,94660.44
2023-04-17T00:54:08.180Z,94667.88
2023-04-17T00:56:54.540Z,94660.56
2023-04-17T00:59:40.716Z,94664.41
2023-04-17T01:02:27.152Z,94662.03
2023-04-17T01:05:13.312Z,94659.44
2023-04-17T01:07:59.209Z,94667.69
2023-04-17T01:10:44.934Z,94658.41
2023-04-17T01:13:31.314Z,94654.59
2023-04-17T01:16:18.552Z,94657.09
2023-04-17T01:19:05.211Z,94650.09
2023-04-17T01:21:51.309Z,94661.84
2023-04-17T01:24:37.527Z,94661.84
2023-04-17T01:27:24.866Z,94653.03
2023-04-17T01:30:11.127Z,94656.53
2023-04-17T01:33:04.089Z,94661.63
2023-04-17T01:35:50.308Z,94662.41
2023-04-17T01:38:36.231Z,94672.13
2023-04-17T01:41:22.101Z,94657.34
2023-04-17T01:44:08.010Z,94662.09
2023-04-17T01:46:53.886Z,94665.25
2023-04-17T01:49:40.922Z,94668.84
2023-04-17T01:52:26.728Z,94661.84
2023-04-17T01:55:12.638Z,94671.69
2023-04-17T01:57:58.747Z,94665.03
2023-04-17T02:00:48.580Z,94670.22
2023-04-17T02:03:34.617Z,94671.81
2023-04-17T02:06:20.788Z,94669.56
2023-04-17T02:09:06.671Z,94667.97
2023-04-17T02:11:56.955Z,94667.00
2023-04-17T02:14:42.921Z,94665.88
2023-04-17T02:17:28.846Z,94666.66
2023-04-17T02:20:14.608Z,94666.19
2023-04-17T02:23:01.336Z,94669.81
2023-04-17T02:25:47.020Z,94673.66
2023-04-17T02:28:34.312Z,94677.16
2023-04-17T02:31:21.436Z,94668.91
2023-04-17T02:34:08.087Z,94682.91
2023-04-17T02:36:54.268Z,94671.94
2023-04-17T02:39:42.814Z,94682.13
2023-04-17T02:42:30.687Z,94672.28
2023-04-17T02:45:16.856Z,94681.31
2023-04-17T02:48:03.142Z,94683.56
2023-04-17T02:50:49.560Z,94691.69
2023-04-17T02:53:38.043Z,94698.22
2023-04-17T02:56:24.419Z,94692.81
2023-04-17T02:59:10.781Z,94694.75
2023-04-17T03:01:59.779Z,94691.22
2023-04-17T03:04:46.213Z,94700.34
2023-04-17T03:07:32.111Z,94699.56
2023-04-17T03:10:18.913Z,94690.06
2023-04-17T03:13:04.878Z,94704.03
2023-04-17T03:15:51.973Z,94695.50
2023-04-17T03:18:40.957Z,94695.38
2023-04-17T03:21:27.776Z,94693.66
2023-04-17T03:24:14.155Z,94692.97
2023-04-17T03:27:01.015Z,94699.31
2023-04-17T03:29:54.686Z,94697.28
2023-04-17T03:32:40.921Z,94702.22
2023-04-17T03:35:27.061Z,94704.59
2023-04-17T03:38:13.417Z,94696.69
2023-04-17T03:40:59.638Z,94697.94
2023-04-17T03:43:45.828Z,94704.47
2023-04-17T03:46:31.872Z,94707.66
2023-04-17T03:49:17.885Z,94717.69
2023-04-17T03:52:13.580Z,94709.78
2023-04-17T03:55:10.898Z,94722.06
2023-04-17T03:57:57.187Z,94730.38
2023-04-17T04:00:46.600Z,94728.13
2023-04-17T04:03:32.871Z,94726.78
2023-04-17T04:06:20.428Z,94724.72
2023-04-17T04:09:07.528Z,94730.78
2023-04-17T04:11:53.659Z,94730.78
2023-04-17T04:14:41.766Z,94726.06
2023-04-17T04:17:29.149Z,94740.03
2023-04-17T04:20:15.454Z,94737.22
2023-04-17T04:23:01.627Z,94741.63
2023-04-17T04:25:49.742Z,94738.44
2023-04-17T04:28:53.766Z,94752.44
2023-04-17T04:31:50.577Z,94747.72
2023-04-17T04:34:39.392Z,94745.13
2023-04-17T04:37:30.267Z,94743.19
2023-04-17T04:40:24.748Z,94750.53
2023-04-17T04:43:11.727Z,94741.50
2023-04-17T04:46:01.548Z,94743.84
2023-04-17T04:48:51.012Z,94742.41
2023-04-17T04:51:36.999Z,94738.91
2023-04-17T04:54:25.566Z,94734.19
2023-04-17T04:57:15.748Z,94735.31
2023-04-17T05:00:09.582Z,94741.16
2023-04-17T05:02:59.238Z,94734.63
2023-04-17T05:05:48.352Z,94731.47
2023-04-17T05:08:34.914Z,94735.09
2023-04-17T05:11:28.134Z,94743.84
2023-04-17T05:14:14.343Z,94740.50
2023-04-17T05:17:01.579Z,94742.53
2023-04-17T05:19:48.478Z,94746.84
2023-04-17T05:22:34.932Z,94748.44
2023-04-17T05:25:33.316Z,94751.59
2023-04-17T05:28:23.075Z,94743.91
2023-04-17T05:31:13.155Z,94750.44
2023-04-17T05:34:01.477Z,94747.53
2023-04-17T05:36:47.557Z,94751.38
2023-04-17T05:39:34.398Z,94743.06
2023-04-17T05:42:20.934Z,94744.66
2023-04-17T05:45:07.506Z,94745.06
2023-04-17T05:47:53.529Z,94742.19
2023-04-17T05:50:40.303Z,94736.31
2023-04-17T05:53:27.363Z,94736.09
2023-04-17T05:56:16.611Z,94741.53
2023-04-17T05:59:02.815Z,94739.59
2023-04-17T06:01:49.110Z,94742.41
2023-04-17T06:04:39.203Z,94748.28
2023-04-17T06:07:25.495Z,94744.94
2023-04-17T06:10:12.269Z,94744.59
2023-04-17T06:12:58.443Z,94751.72
2023-04-17T06:15:45.489Z,94749.47
2023-04-17T06:18:31.673Z,94749.94
2023-04-17T06:21:17.468Z,94752.66
2023-04-17T06:24:03.418Z,94753.44
2023-04-17T06:26:49.339Z,94755.81
2023-04-17T06:29:35.155Z,94759.75
2023-04-17T06:32:22.763Z,94752.88
2023-04-17T06:35:10.593Z,94760.34
2023-04-17T06:38:02.582Z,94755.41
2023-04-17T06:40:50.170Z,94765.09
2023-04-17T06:43:37.790Z,94766.00
2023-04-17T06:46:32.710Z,94764.88
2023-04-17T06:49:22.909Z,94765.78
2023-04-17T06:52:09.753Z,94768.50
2023-04-17T06:54:56.067Z,94774.38
2023-04-17T06:57:41.961Z,94776.06
2023-04-17T07:00:27.987Z,94778.56
2023-04-17T07:03:14.939Z,94773.25
2023-04-17T07:06:01.124Z,94774.19
2023-04-17T07:08:46.901Z,94776.00
2023-04-17T07:11:32.822Z,94776.91
2023-04-17T07:14:18.569Z,94774.66
2023-04-17T07:17:05.183Z,94776.78
2023-04-17T07:19:50.822Z,94783.13
2023-04-17T07:22:37.024Z,94781.22
2023-04-17T07:25:23.490Z,94782.09
2023-04-17T07:28:09.867Z,94783.00
2023-04-17T07:30:58.247Z,94784.94
2023-04-17T07:33:44.519Z,94790.25
2023-04-17T07:36:30.584Z,94790.25
2023-04-17T07:39:16.407Z,94788.09
2023-04-17T07:42:06.529Z,94797.91
2023-04-17T07:44:52.458Z,94794.06
2023-04-17T07:47:38.588Z,94787.53
2023-04-17T07:50:26.651Z,94799.28
2023-04-17T07:53:12.593Z,94793.88
2023-04-17T07:55:58.914Z,94794.75
2023-04-17T07:58:51.945Z,94795.66
2023-04-17T08:01:37.738Z,94808.31
2023-04-17T08:04:24.728Z,94790.44
2023-04-17T08:07:11.841Z,94795.22
2023-04-17T08:09:57.902Z,94796.25
2023-04-17T08:12:43.539Z,94800.63
2023-04-17T08:15:29.893Z,94802.22
2023-04-17T08:18:16.000Z,94805.38
2023-04-17T08:21:01.784Z,94808.09
2023-04-17T08:23:48.061Z,94798.84
2023-04-17T08:26:34.019Z,94805.13
2023-04-17T08:29:20.176Z,94799.03
2023-04-17T08:32:14.052Z,94785.00
2023-04-17T08:35:01.266Z,94796.88
2023-04-17T08:37:47.102Z,94797.09
2023-04-17T08:40:32.913Z,94798.34
2023-04-17T08:43:20.868Z,94797.88
2023-04-17T08:46:07.789Z,94801.03
2023-04-17T08:48:53.968Z,94801.03
2023-04-17T08:51:39.793Z,94802.38
2023-04-17T08:54:25.852Z,94795.34
2023-04-17T08:57:11.843Z,94806.88
2023-04-17T08:59:57.606Z,94807.09
2023-04-17T09:02:54.587Z,94803.44
2023-04-17T09:05:43.726Z,94798.19
2023-04-17T09:08:29.910Z,94794.34
2023-04-17T09:11:17.351Z,94790.69
2023-04-17T09:14:03.336Z,94794.28
2023-04-17T09:16:55.450Z,94783.19
2023-04-17T09:20:09.893Z,94790.38
2023-04-17T09:23:03.863Z,94786.25
2023-04-17T09:26:08.822Z,94787.59
2023-04-17T09:29:02.223Z,94781.38
2023-04-17T09:31:48.461Z,94773.34
2023-04-17T09:34:40.756Z,94765.59
2023-04-17T09:37:27.543Z,94762.00
2023-04-17T09:40:13.386Z,94759.75
2023-04-17T09:43:05.629Z,94757.91
2023-04-17T09:45:52.520Z,94759.94
2023-04-17T09:48:39.865Z,94749.75
2023-04-17T09:51:26.781Z,94751.41
2023-04-17T09:54:14.983Z,94747.91
2023-04-17T09:57:03.921Z,94753.34
2023-04-17T09:59:50.150Z,94740.44
2023-04-17T10:02:36.299Z,94745.09
2023-04-17T10:05:24.098Z,94743.66
2023-04-17T10:08:09.992Z,94740.31
2023-04-17T10:11:04.212Z,94745.13
2023-04-17T10:14:00.234Z,94744.25
2023-04-17T10:16:47.354Z,94738.63
2023-04-17T10:19:36.684Z,94737.72
2023-04-17T10:22:24.142Z,94740.72
2023-04-17T10:25:13.172Z,94739.38
2023-04-17T10:28:00.528Z,94738.75
2023-04-17T10:30:51.535Z,94743.09
2023-04-17T10:33:51.737Z,94742.91
2023-04-17T10:36:40.589Z,94801.53
2023-04-17T10:39:26.346Z,94805.06
2023-04-17T10:42:21.870Z,94812.41
2023-04-17T10:45:19.024Z,94804.03
2023-04-17T10:48:04.835Z,94805.16
2023-04-17T10:50:54.954Z,94801.88
2023-04-17T10:53:44.981Z,94811.25
2023-04-17T10:56:49.416Z,94812.25
2023-04-17T10:59:35.584Z,94815.72
2023-04-17T11:02:34.104Z,94826.44
2023-04-17T11:05:24.600Z,94823.81
2023-04-17T11:08:13.826Z,94818.16
2023-04-17T11:11:03.707Z,94810.88
2023-04-17T11:13:49.826Z,94803.06
2023-04-17T11:16:38.088Z,94820.41
2023-04-17T11:19:25.251Z,94817.56
2023-04-17T11:22:11.519Z,94825.69
2023-04-17T11:24:57.438Z,94819.34
2023-04-17T11:27:43.714Z,94823.66
2023-04-17T11:30:45.179Z,94826.34
2023-04-17T11:33:38.110Z,94831.78
2023-04-17T11:36:24.222Z,94816.31
2023-04-17T11:39:10.440Z,94829.00
2023-04-17T11:41:57.308Z,94823.06
2023-04-17T11:44:44.823Z,94815.41
2023-04-17T11:47:31.078Z,94812.47
2023-04-17T11:50:17.178Z,94805.47
2023-04-17T11:53:05.048Z,94805.75
2023-04-17T11:56:13.181Z,94809.56
2023-04-17T11:59:03.798Z,94800.75
2023-04-17T12:01:53.398Z,94801.91
2023-04-17T12:04:40.763Z,94788.63
2023-04-17T12:07:26.796Z,94799.03
2023-04-17T12:10:12.591Z,94801.50
2023-04-17T12:12:59.031Z,94793.16
2023-04-17T12:15:45.334Z,94795.66
2023-04-17T12:18:31.226Z,94795.78
2023-04-17T12:21:17.288Z,94794.78
2023-04-17T12:24:03.370Z,94801.53
2023-04-17T12:26:50.037Z,94802.91
2023-04-17T12:29:43.723Z,94806.50
2023-04-17T12:32:30.958Z,94794.06
2023-04-17T12:35:16.790Z,94804.47
2023-04-17T12:38:03.066Z,94799.97
2023-04-17T12:40:49.543Z,94798.03
2023-04-17T12:43:35.420Z,94788.44
2023-04-17T12:46:21.559Z,94785.38
2023-04-17T12:49:07.646Z,94783.91
2023-04-17T12:51:53.372Z,94783.69
2023-04-17T12:54:40.828Z,94784.13
2023-04-17T12:57:27.515Z,94777.13
2023-04-17T13:00:14.341Z,94773.16
2023-04-17T13:03:01.201Z,94775.41
2023-04-17T13:05:48.973Z,94768.31
2023-04-17T13:08:35.900Z,94759.59
2023-04-17T13:11:22.342Z,94766.97
2023-04-17T13:14:09.140Z,94764.16
2023-04-17T13:16:55.349Z,94767.28
2023-04-17T13:19:42.523Z,94768.78
2023-04-17T13:22:28.511Z,94757.47
2023-04-17T13:25:14.547Z,94771.16
2023-04-17T13:28:00.572Z,94763.34
2023-04-17T13:30:46.569Z,94763.44
2023-04-17T13:33:32.793Z,94773.03
2023-04-17T13:36:18.918Z,94775.75
2023-04-17T13:39:07.719Z,94775.56
2023-04-17T13:41:57.515Z,94763.31
2023-04-17T13:44:43.213Z,94768.72
2023-04-17T13:47:29.318Z,94757.34
2023-04-17T13:50:15.440Z,94761.53
2023-04-17T13:53:02.046Z,94759.84
2023-04-17T13:55:48.539Z,94759.72
2023-04-17T13:58:35.004Z,94756.44
2023-04-17T14:01:21.359Z,94753.31
2023-04-17T14:04:08.042Z,94753.63
2023-04-17T14:06:54.690Z,94745.72
2023-04-17T14:09:41.078Z,94742.78
2023-04-17T14:12:27.284Z,94743.47
2023-04-17T14:15:13.329Z,94753.66
2023-04-17T14:17:59.427Z,94752.72
2023-04-17T14:20:46.870Z,94752.59
2023-04-17T14:23:33.151Z,94746.63
2023-04-17T14:26:19.183Z,94744.13
2023-04-17T14:29:05.427Z,94758.25
2023-04-17T14:31:51.808Z,94758.13
2023-04-17T14:34:37.567Z,94760.84
2023-04-17T14:37:23.404Z,94756.00
2023-04-17T14:40:09.748Z,94756.56
2023-04-17T14:42:58.723Z,94753.97
2023-04-17T14:45:44.722Z,94747.97
2023-04-17T14:48:32.730Z,94753.53
2023-04-17T14:51:20.412Z,94752.50
2023-04-17T14:54:06.649Z,94750.94
2023-04-17T14:56:52.374Z,94743.81
2023-04-17T14:59:39.045Z,94757.28
2023-04-17T15:02:24.980Z,94747.31
2023-04-17T15:05:11.373Z,94738.72
2023-04-17T15:07:57.469Z,94741.41
2023-04-17T15:10:50.793Z,94739.63
2023-04-17T15:13:40.607Z,94738.63
2023-04-17T15:16:26.917Z,94737.03
2023-04-17T15:19:13.556Z,94734.66
2023-04-17T15:21:59.457Z,94743.66
2023-04-17T15:24:45.500Z,94747.28
2023-04-17T15:27:31.601Z,94742.53
2023-04-17T15:30:17.756Z,94742.53
2023-04-17T15:33:03.949Z,94740.28
2023-04-17T15:35:55.272Z,94740.16
2023-04-17T15:38:41.450Z,94745.50
2023-04-17T15:41:27.757Z,94739.03
2023-04-17T15:44:13.710Z,94741.22
2023-04-17T15:47:00.153Z,94736.38
2023-04-17T15:49:48.223Z,94749.69
2023-04-17T15:52:34.733Z,94742.78
2023-04-17T15:55:20.944Z,94745.50
2023-04-17T15:58:07.122Z,94752.94
2023-04-17T16:00:54.115Z,94748.19
2023-04-17T16:03:42.482Z,94753.38
2023-04-17T16:06:28.322Z,94748.41
2023-04-17T16:09:17.980Z,94745.00
2023-04-17T16:12:05.637Z,94755.56
2023-04-17T16:14:51.805Z,94754.38
2023-04-17T16:17:38.167Z,94748.06
2023-04-17T16:20:24.379Z,94750.97
2023-04-17T16:23:10.406Z,94756.38
2023-04-17T16:25:56.275Z,94770.91
2023-04-17T16:28:43.291Z,94766.97
2023-04-17T16:31:29.494Z,94762.19
2023-04-17T16:34:15.226Z,94766.50
2023-04-17T16:37:01.032Z,94760.47
2023-04-17T16:39:47.416Z,94763.97
2023-04-17T16:42:33.558Z,94773.69
2023-04-17T16:45:19.939Z,94773.69
2023-04-17T16:48:09.098Z,94774.38
2023-04-17T16:51:04.733Z,94781.88
2023-04-17T16:53:50.875Z,94788.75
2023-04-17T16:56:37.006Z,94791.53
2023-04-17T16:59:24.177Z,94800.66
2023-04-17T17:02:11.244Z,94801.00
2023-04-17T17:04:57.345Z,94808.41
2023-04-17T17:07:43.110Z,94807.00
2023-04-17T17:10:28.864Z,94810.75
2023-04-17T17:13:14.718Z,94804.13
2023-04-17T17:16:00.323Z,94797.97
2023-04-17T17:18:46.342Z,94813.56
2023-04-17T17:21:32.715Z,94807.75
2023-04-17T17:24:18.893Z,94811.88
2023-04-17T17:27:04.982Z,94833.97
2023-04-17T17:29:50.867Z,94840.03
2023-04-17T17:32:36.992Z,94835.91
2023-04-17T17:35:23.184Z,94833.84
2023-04-17T17:38:10.121Z,94836.06
2023-04-17T17:40:57.023Z,94830.38
2023-04-17T17:43:43.238Z,94838.19
2023-04-17T17:46:30.623Z,94843.91
2023-04-17T17:49:17.491Z,94845.00
2023-04-17T17:52:03.705Z,94843.09
2023-04-17T17:54:50.366Z,94852.94
2023-04-17T17:57:46.062Z,94845.97
2023-04-17T18:00:35.543Z,94853.09
2023-04-17T18:03:21.992Z,94853.25
2023-04-17T18:06:08.451Z,94857.84
2023-04-17T18:08:54.639Z,94871.53
2023-04-17T18:11:40.819Z,94865.00
2023-04-17T18:14:26.676Z,94869.75
2023-04-17T18:17:12.934Z,94867.50
2023-04-17T18:19:58.945Z,94870.53
2023-04-17T18:22:46.698Z,94881.69
2023-04-17T18:25:32.478Z,94887.22
2023-04-17T18:28:18.552Z,94891.50
2023-04-17T18:31:04.431Z,94888.66
2023-04-17T18:33:50.284Z,94895.31
2023-04-17T18:36:36.232Z,94884.34
2023-04-17T18:39:22.295Z,94897.03
2023-04-17T18:42:09.141Z,94903.88
2023-04-17T18:44:55.177Z,94909.72
2023-04-17T18:47:41.083Z,94905.25
2023-04-17T18:50:27.558Z,94905.25
2023-04-17T18:53:13.484Z,94912.25
2023-04-17T18:55:59.252Z,94904.47
2023-04-17T18:58:45.313Z,94908.72
2023-04-17T19:01:31.407Z,94919.69
2023-04-17T19:04:17.197Z,94918.25
2023-04-17T19:07:03.299Z,94917.94
2023-04-17T19:09:49.232Z,94912.84
2023-04-17T19:12:36.282Z,94916.66
2023-04-17T19:15:22.202Z,94915.88
2023-04-17T19:18:09.689Z,94921.59
2023-04-17T19:20:55.776Z,94924.78
2023-04-17T19:23:41.985Z,94923.66
2023-04-17T19:26:28.052Z,94912.84
2023-04-17T19:29:17.095Z,94913.66
2023-04-17T19:32:03.459Z,94918.75
2023-04-17T19:34:49.689Z,94920.28
2023-04-17T19:37:35.677Z,94923.94
2023-04-17T19:40:25.540Z,94919.66
2023-04-17T19:43:12.107Z,94923.16
2023-04-17T19:45:57.969Z,94905.22
2023-04-17T19:48:44.912Z,94916.31
2023-04-17T19:51:31.549Z,94908.50
2023-04-17T19:54:17.861Z,94913.31
2023-04-17T19:57:04.086Z,94909.03
2023-04-17T19:59:50.156Z,94907.28
2023-04-17T20:02:36.437Z,94905.44
2023-04-17T20:05:22.946Z,94904.78
2023-04-17T20:08:09.632Z,94902.09
2023-04-17T20:10:55.807Z,94907.50
2023-04-17T20:13:43.747Z,94912.91
2023-04-17T20:16:29.676Z,94902.41
2023-04-17T20:19:16.723Z,94910.97
2023-04-17T20:22:03.041Z,94910.31
2023-04-17T20:24:50.847Z,94917.31
2023-04-17T20:27:36.765Z,94909.53
2023-04-17T20:30:23.236Z,94904.44
2023-04-17T20:33:09.390Z,94914.13
2023-04-17T20:35:56.791Z,94910.97
2023-04-17T20:38:42.801Z,94916.38
2023-04-17T20:41:29.081Z,94919.53
2023-04-17T20:44:16.515Z,94919.53
2023-04-17T20:47:02.381Z,94908.28
2023-04-17T20:49:48.275Z,94922.72
2023-04-17T20:52:34.737Z,94928.13
2023-04-17T20:55:20.953Z,94931.63
2023-04-17T20:58:08.339Z,94933.53
2023-04-17T21:01:01.313Z,94932.41
2023-04-17T21:03:48.314Z,94938.31
2023-04-17T21:06:34.128Z,94942.59
2023-04-17T21:09:19.986Z,94934.34
2023-04-17T21:12:07.711Z,94935.13
2023-04-17T21:14:54.505Z,94928.78
2023-04-17T21:17:46.193Z,94927.38
2023-04-17T21:20:32.025Z,94931.66
2023-04-17T21:23:17.983Z,94931.34
2023-04-17T21:26:03.937Z,94938.34
2023-04-17T21:28:49.835Z,94933.59
2023-04-17T21:31:35.713Z,94938.06
2023-04-17T21:34:22.911Z,94926.00
2023-04-17T21:37:08.950Z,94930.78
2023-04-17T21:39:55.281Z,94925.06
2023-04-17T21:42:41.338Z,94925.06
2023-04-17T21:45:28.456Z,94921.56
2023-04-17T21:48:15.092Z,94916.16
2023-04-17T21:51:04.962Z,94914.88
2023-04-17T21:53:51.083Z,94915.22
2023-04-17T21:56:37.713Z,94918.06
2023-04-17T21:59:24.395Z,94918.06
2023-04-17T22:02:10.109Z,94912.66
2023-04-17T22:04:56.391Z,94914.91
2023-04-17T22:07:53.744Z,94923.97
2023-04-17T22:10:40.777Z,94916.50
2023-04-17T22:13:26.491Z,94919.03
2023-04-17T22:16:12.555Z,94919.50
2023-04-17T22:18:58.666Z,94919.81
2023-04-17T22:21:44.324Z,94916.47
2023-04-17T22:24:30.142Z,94918.84
2023-04-17T22:27:15.935Z,94919.34
2023-04-17T22:30:01.799Z,94908.03
2023-04-17T22:32:48.498Z,94920.31
2023-04-17T22:35:34.154Z,94911.41
2023-04-17T22:38:21.223Z,94914.25
2023-04-17T22:41:06.963Z,94905.53
2023-04-17T22:43:52.675Z,94915.38
2023-04-17T22:46:38.461Z,94910.44
2023-04-17T22:49:25.406Z,94911.22
2023-04-17T22:52:11.116Z,94920.44
2023-04-17T22:54:56.929Z,94924.75
2023-04-17T22:57:42.691Z,94920.44
2023-04-17T23:00:28.520Z,94918.41
2023-04-17T23:03:14.579Z,94915.38
2023-04-17T23:06:00.803Z,94912.22
2023-04-17T23:08:46.638Z,94907.28
2023-04-17T23:11:33.481Z,94915.03
2023-04-17T23:14:19.259Z,94904.09
2023-04-17T23:17:06.628Z,94918.84
2023-04-17T23:19:53.407Z,94912.22
2023-04-17T23:22:39.217Z,94920.94
2023-04-17T23:25:25.005Z,94916.94
2023-04-17T23:28:10.889Z,94908.72
2023-04-17T23:30:58.130Z,94908.72
2023-04-17T23:33:43.972Z,94910.63
2023-04-17T23:36:29.604Z,94908.22
2023-04-17T23:39:15.510Z,94917.44
2023-04-17T23:42:07.163Z,94916.50
2023-04-17T23:44:53.539Z,94915.56
2023-04-17T23:47:39.411Z,94911.59
2023-04-17T23:50:26.307Z,94903.63
2023-04-17T23:53:12.287Z,94903.03
2023-04-17T23:55:58.434Z,94909.84
2023-04-17T23:58:44.174Z,94906.03
